sensor_id;sensor_type;location;lat;lon;timestamp;P1;P2;P0
46681;PMS5003;34101;53.430;-2.224;2024-01-15T00:01:54;8;7;
46681;PMS5003;34101;53.430;-2.224;2024-01-15T00:04:22;5;5;
46681;PMS5003;34101;53.430;-2.224;2024-01-15T00:06:50;9;9;
46681;PMS5003;34101;53.430;-2.224;2024-01-15T00:09:17;8;7;
46681;PMS5003;34101;53.430;-2.224;2024-01-15T00:11:44;7;5;
46681;PMS5003;34101;53.430;-2.224;2024-01-15T00:14:12;5;5;
46681;PMS5003;34101;53.430;-2.224;2024-01-15T00:16:40;7;5;
46681;PMS5003;34101;53.430;-2.224;2024-01-15T00:19:07;5;5;
46681;PMS5003;34101;53.430;-2.224;2024-01-15T00:21:34;7;7;
46681;PMS5003;34101;53.430;-2.224;2024-01-15T00:24:02;7;7;
46681;PMS5003;34101;53.430;-2.224;2024-01-15T00:26:30;4;4;
46681;PMS5003;34101;53.430;-2.224;2024-01-15T00:28:58;8;8;
46681;PMS5003;34101;53.430;-2.224;2024-01-15T00:31:25;7;7;
46681;PMS5003;34101;53.430;-2.224;2024-01-15T00:33:52;9;9;
46681;PMS5003;34101;53.430;-2.224;2024-01-15T00:36:20;8;7;
46681;PMS5003;34101;53.430;-2.224;2024-01-15T00:38:47;7;7;
46681;PMS5003;34101;53.430;-2.224;2024-01-15T00:41:15;8;5;
46681;PMS5003;34101;53.430;-2.224;2024-01-15T00:43:42;7;7;
46681;PMS5003;34101;53.430;-2.224;2024-01-15T00:46:10;7;5;
46681;PMS5003;34101;53.430;-2.224;2024-01-15T00:48:37;10;7;
46681;PMS5003;34101;53.430;-2.224;2024-01-15T00:51:05;5;4;
46681;PMS5003;34101;53.430;-2.224;2024-01-15T00:53:33;8;8;
46681;PMS5003;34101;53.430;-2.224;2024-01-15T00:56:01;8;7;
46681;PMS5003;34101;53.430;-2.224;2024-01-15T00:58:28;4;4;
46681;PMS5003;34101;53.430;-2.224;2024-01-15T01:00:56;7;4;
46681;PMS5003;34101;53.430;-2.224;2024-01-15T01:03:24;7;7;
46681;PMS5003;34101;53.430;-2.224;2024-01-15T01:05:51;5;5;
46681;PMS5003;34101;53.430;-2.224;2024-01-15T01:08:19;4;4;
46681;PMS5003;34101;53.430;-2.224;2024-01-15T01:10:46;3;3;
46681;PMS5003;34101;53.430;-2.224;2024-01-15T01:13:14;4;4;
46681;PMS5003;34101;53.430;-2.224;2024-01-15T01:15:41;7;5;
46681;PMS5003;34101;53.430;-2.224;2024-01-15T01:18:09;4;4;
46681;PMS5003;34101;53.430;-2.224;2024-01-15T01:20:36;5;4;
46681;PMS5003;34101;53.430;-2.224;2024-01-15T01:23:04;3;3;
46681;PMS5003;34101;53.430;-2.224;2024-01-15T01:25:31;7;7;
46681;PMS5003;34101;53.430;-2.224;2024-01-15T01:27:59;3;3;
46681;PMS5003;34101;53.430;-2.224;2024-01-15T01:30:27;5;4;
46681;PMS5003;34101;53.430;-2.224;2024-01-15T01:32:54;3;3;
46681;PMS5003;34101;53.430;-2.224;2024-01-15T01:35:22;7;4;
46681;PMS5003;34101;53.430;-2.224;2024-01-15T01:37:49;5;4;
46681;PMS5003;34101;53.430;-2.224;2024-01-15T01:40:16;4;4;
46681;PMS5003;34101;53.430;-2.224;2024-01-15T01:42:44;4;2;
46681;PMS5003;34101;53.430;-2.224;2024-01-15T01:45:12;3;3;
46681;PMS5003;34101;53.430;-2.224;2024-01-15T01:47:39;4;4;
46681;PMS5003;34101;53.430;-2.224;2024-01-15T01:50:07;3;3;
46681;PMS5003;34101;53.430;-2.224;2024-01-15T01:52:34;3;3;
46681;PMS5003;34101;53.430;-2.224;2024-01-15T01:55:03;2;2;
46681;PMS5003;34101;53.430;-2.224;2024-01-15T01:57:33;1;1;
46681;PMS5003;34101;53.430;-2.224;2024-01-15T02:00:01;6;2;
46681;PMS5003;34101;53.430;-2.224;2024-01-15T02:02:30;1;1;
46681;PMS5003;34101;53.430;-2.224;2024-01-15T02:04:58;1;1;
46681;PMS5003;34101;53.430;-2.224;2024-01-15T02:07:26;0;0;
46681;PMS5003;34101;53.430;-2.224;2024-01-15T02:09:53;2;2;
46681;PMS5003;34101;53.430;-2.224;2024-01-15T02:12:21;1;1;
46681;PMS5003;34101;53.430;-2.224;2024-01-15T02:14:48;2;2;
46681;PMS5003;34101;53.430;-2.224;2024-01-15T02:17:16;2;1;
46681;PMS5003;34101;53.430;-2.224;2024-01-15T02:19:43;1;1;
46681;PMS5003;34101;53.430;-2.224;2024-01-15T02:22:11;3;2;
46681;PMS5003;34101;53.430;-2.224;2024-01-15T02:24:38;1;1;
46681;PMS5003;34101;53.430;-2.224;2024-01-15T02:27:06;0;0;
46681;PMS5003;34101;53.430;-2.224;2024-01-15T02:29:33;2;2;
46681;PMS5003;34101;53.430;-2.224;2024-01-15T02:32:04;0;0;
46681;PMS5003;34101;53.430;-2.224;2024-01-15T02:34:31;1;1;
46681;PMS5003;34101;53.430;-2.224;2024-01-15T02:36:59;1;1;
46681;PMS5003;34101;53.430;-2.224;2024-01-15T02:39:26;2;2;
46681;PMS5003;34101;53.430;-2.224;2024-01-15T02:41:54;2;2;
46681;PMS5003;34101;53.430;-2.224;2024-01-15T02:44:21;3;1;
46681;PMS5003;34101;53.430;-2.224;2024-01-15T02:46:49;1;1;
46681;PMS5003;34101;53.430;-2.224;2024-01-15T02:49:16;2;2;
46681;PMS5003;34101;53.430;-2.224;2024-01-15T02:51:44;1;1;
46681;PMS5003;34101;53.430;-2.224;2024-01-15T02:54:11;2;2;
46681;PMS5003;34101;53.430;-2.224;2024-01-15T02:56:39;1;1;
46681;PMS5003;34101;53.430;-2.224;2024-01-15T02:59:06;1;1;
46681;PMS5003;34101;53.430;-2.224;2024-01-15T03:01:34;1;1;
46681;PMS5003;34101;53.430;-2.224;2024-01-15T03:04:02;2;2;
46681;PMS5003;34101;53.430;-2.224;2024-01-15T03:06:30;1;1;
46681;PMS5003;34101;53.430;-2.224;2024-01-15T03:08:58;0;0;
46681;PMS5003;34101;53.430;-2.224;2024-01-15T03:11:25;1;1;
46681;PMS5003;34101;53.430;-2.224;2024-01-15T03:13:53;0;0;
46681;PMS5003;34101;53.430;-2.224;2024-01-15T03:16:20;2;2;
46681;PMS5003;34101;53.430;-2.224;2024-01-15T03:18:48;1;1;
46681;PMS5003;34101;53.430;-2.224;2024-01-15T03:21:15;1;1;
46681;PMS5003;34101;53.430;-2.224;2024-01-15T03:23:43;1;1;
46681;PMS5003;34101;53.430;-2.224;2024-01-15T03:26:10;3;3;
46681;PMS5003;34101;53.430;-2.224;2024-01-15T03:28:38;2;2;
46681;PMS5003;34101;53.430;-2.224;2024-01-15T03:31:05;2;1;
46681;PMS5003;34101;53.430;-2.224;2024-01-15T03:33:34;1;1;
46681;PMS5003;34101;53.430;-2.224;2024-01-15T03:36:01;1;1;
46681;PMS5003;34101;53.430;-2.224;2024-01-15T03:38:30;2;2;
46681;PMS5003;34101;53.430;-2.224;2024-01-15T03:40:57;3;3;
46681;PMS5003;34101;53.430;-2.224;2024-01-15T03:43:25;3;3;
46681;PMS5003;34101;53.430;-2.224;2024-01-15T03:45:54;2;2;
46681;PMS5003;34101;53.430;-2.224;2024-01-15T03:48:21;4;3;
46681;PMS5003;34101;53.430;-2.224;2024-01-15T03:50:49;2;2;
46681;PMS5003;34101;53.430;-2.224;2024-01-15T03:53:16;2;2;
46681;PMS5003;34101;53.430;-2.224;2024-01-15T03:55:44;6;4;
46681;PMS5003;34101;53.430;-2.224;2024-01-15T03:58:11;4;4;
46681;PMS5003;34101;53.430;-2.224;2024-01-15T04:00:40;2;2;
46681;PMS5003;34101;53.430;-2.224;2024-01-15T04:03:07;4;4;
46681;PMS5003;34101;53.430;-2.224;2024-01-15T04:05:35;4;4;
46681;PMS5003;34101;53.430;-2.224;2024-01-15T04:08:03;4;4;
46681;PMS5003;34101;53.430;-2.224;2024-01-15T04:10:31;4;4;
46681;PMS5003;34101;53.430;-2.224;2024-01-15T04:12:58;6;6;
46681;PMS5003;34101;53.430;-2.224;2024-01-15T04:15:26;7;7;
46681;PMS5003;34101;53.430;-2.224;2024-01-15T04:17:53;4;4;
46681;PMS5003;34101;53.430;-2.224;2024-01-15T04:20:21;4;4;
46681;PMS5003;34101;53.430;-2.224;2024-01-15T04:22:48;7;7;
46681;PMS5003;34101;53.430;-2.224;2024-01-15T04:25:16;8;8;
46681;PMS5003;34101;53.430;-2.224;2024-01-15T04:27:43;7;6;
46681;PMS5003;34101;53.430;-2.224;2024-01-15T04:30:11;7;7;
46681;PMS5003;34101;53.430;-2.224;2024-01-15T04:32:39;9;8;
46681;PMS5003;34101;53.430;-2.224;2024-01-15T04:35:07;7;7;
46681;PMS5003;34101;53.430;-2.224;2024-01-15T04:37:34;8;7;
46681;PMS5003;34101;53.430;-2.224;2024-01-15T04:40:02;8;8;
46681;PMS5003;34101;53.430;-2.224;2024-01-15T04:42:30;4;4;
46681;PMS5003;34101;53.430;-2.224;2024-01-15T04:44:57;7;4;
46681;PMS5003;34101;53.430;-2.224;2024-01-15T04:47:25;4;4;
46681;PMS5003;34101;53.430;-2.224;2024-01-15T04:49:53;4;4;
46681;PMS5003;34101;53.430;-2.224;2024-01-15T04:52:20;4;4;
46681;PMS5003;34101;53.430;-2.224;2024-01-15T04:54:48;4;3;
46681;PMS5003;34101;53.430;-2.224;2024-01-15T04:57:15;4;3;
46681;PMS5003;34101;53.430;-2.224;2024-01-15T04:59:43;3;3;
46681;PMS5003;34101;53.430;-2.224;2024-01-15T05:02:10;2;2;
46681;PMS5003;34101;53.430;-2.224;2024-01-15T05:04:38;3;2;
46681;PMS5003;34101;53.430;-2.224;2024-01-15T05:07:04;3;2;
46681;PMS5003;34101;53.430;-2.224;2024-01-15T05:09:32;3;3;
46681;PMS5003;34101;53.430;-2.224;2024-01-15T05:11:59;3;3;
46681;PMS5003;34101;53.430;-2.224;2024-01-15T05:14:27;2;2;
46681;PMS5003;34101;53.430;-2.224;2024-01-15T05:16:54;2;2;
46681;PMS5003;34101;53.430;-2.224;2024-01-15T05:19:22;2;2;
46681;PMS5003;34101;53.430;-2.224;2024-01-15T05:21:49;2;2;
46681;PMS5003;34101;53.430;-2.224;2024-01-15T05:24:17;2;2;
46681;PMS5003;34101;53.430;-2.224;2024-01-15T05:26:44;2;2;
46681;PMS5003;34101;53.430;-2.224;2024-01-15T05:29:12;3;3;
46681;PMS5003;34101;53.430;-2.224;2024-01-15T05:31:39;1;1;
46681;PMS5003;34101;53.430;-2.224;2024-01-15T05:34:07;2;2;
46681;PMS5003;34101;53.430;-2.224;2024-01-15T05:36:34;3;3;
46681;PMS5003;34101;53.430;-2.224;2024-01-15T05:39:02;2;2;
46681;PMS5003;34101;53.430;-2.224;2024-01-15T05:41:29;1;1;
46681;PMS5003;34101;53.430;-2.224;2024-01-15T05:43:57;3;3;
46681;PMS5003;34101;53.430;-2.224;2024-01-15T05:46:24;6;3;
46681;PMS5003;34101;53.430;-2.224;2024-01-15T05:48:52;2;2;
46681;PMS5003;34101;53.430;-2.224;2024-01-15T05:51:19;1;1;
46681;PMS5003;34101;53.430;-2.224;2024-01-15T05:53:47;2;2;
46681;PMS5003;34101;53.430;-2.224;2024-01-15T05:56:14;2;2;
46681;PMS5003;34101;53.430;-2.224;2024-01-15T05:58:42;2;2;
46681;PMS5003;34101;53.430;-2.224;2024-01-15T06:01:09;6;4;
46681;PMS5003;34101;53.430;-2.224;2024-01-15T06:03:37;3;3;
46681;PMS5003;34101;53.430;-2.224;2024-01-15T06:06:04;3;3;
46681;PMS5003;34101;53.430;-2.224;2024-01-15T06:08:32;3;3;
46681;PMS5003;34101;53.430;-2.224;2024-01-15T06:10:59;7;4;
46681;PMS5003;34101;53.430;-2.224;2024-01-15T06:13:27;3;3;
46681;PMS5003;34101;53.430;-2.224;2024-01-15T06:15:54;4;3;
46681;PMS5003;34101;53.430;-2.224;2024-01-15T06:18:22;4;4;
46681;PMS5003;34101;53.430;-2.224;2024-01-15T06:20:49;4;4;
46681;PMS5003;34101;53.430;-2.224;2024-01-15T06:23:17;2;2;
46681;PMS5003;34101;53.430;-2.224;2024-01-15T06:25:44;2;2;
46681;PMS5003;34101;53.430;-2.224;2024-01-15T06:28:12;2;2;
46681;PMS5003;34101;53.430;-2.224;2024-01-15T06:30:39;3;3;
46681;PMS5003;34101;53.430;-2.224;2024-01-15T06:33:07;3;3;
46681;PMS5003;34101;53.430;-2.224;2024-01-15T06:35:35;2;2;
46681;PMS5003;34101;53.430;-2.224;2024-01-15T06:38:02;6;3;
46681;PMS5003;34101;53.430;-2.224;2024-01-15T06:40:30;6;6;
46681;PMS5003;34101;53.430;-2.224;2024-01-15T06:42:57;2;2;
46681;PMS5003;34101;53.430;-2.224;2024-01-15T06:45:25;4;4;
46681;PMS5003;34101;53.430;-2.224;2024-01-15T06:47:52;4;4;
46681;PMS5003;34101;53.430;-2.224;2024-01-15T06:50:20;3;3;
46681;PMS5003;34101;53.430;-2.224;2024-01-15T06:52:47;7;4;
46681;PMS5003;34101;53.430;-2.224;2024-01-15T06:55:15;6;6;
46681;PMS5003;34101;53.430;-2.224;2024-01-15T06:57:42;7;4;
46681;PMS5003;34101;53.430;-2.224;2024-01-15T07:00:10;4;4;
46681;PMS5003;34101;53.430;-2.224;2024-01-15T07:02:38;4;4;
46681;PMS5003;34101;53.430;-2.224;2024-01-15T07:05:06;3;3;
46681;PMS5003;34101;53.430;-2.224;2024-01-15T07:07:33;4;4;
46681;PMS5003;34101;53.430;-2.224;2024-01-15T07:10:01;3;3;
46681;PMS5003;34101;53.430;-2.224;2024-01-15T07:12:29;3;3;
46681;PMS5003;34101;53.430;-2.224;2024-01-15T07:14:57;7;6;
46681;PMS5003;34101;53.430;-2.224;2024-01-15T07:17:24;4;4;
46681;PMS5003;34101;53.430;-2.224;2024-01-15T07:19:52;2;2;
46681;PMS5003;34101;53.430;-2.224;2024-01-15T07:22:19;6;4;
46681;PMS5003;34101;53.430;-2.224;2024-01-15T07:24:47;3;3;
46681;PMS5003;34101;53.430;-2.224;2024-01-15T07:27:14;3;3;
46681;PMS5003;34101;53.430;-2.224;2024-01-15T07:29:42;7;6;
46681;PMS5003;34101;53.430;-2.224;2024-01-15T07:32:09;4;4;
46681;PMS5003;34101;53.430;-2.224;2024-01-15T07:34:37;8;6;
46681;PMS5003;34101;53.430;-2.224;2024-01-15T07:37:04;13;11;
46681;PMS5003;34101;53.430;-2.224;2024-01-15T07:39:32;9;9;
46681;PMS5003;34101;53.430;-2.224;2024-01-15T07:42:01;9;9;
46681;PMS5003;34101;53.430;-2.224;2024-01-15T07:44:28;6;6;
46681;PMS5003;34101;53.430;-2.224;2024-01-15T07:46:56;4;4;
46681;PMS5003;34101;53.430;-2.224;2024-01-15T07:49:23;3;3;
46681;PMS5003;34101;53.430;-2.224;2024-01-15T07:51:51;6;3;
46681;PMS5003;34101;53.430;-2.224;2024-01-15T07:54:18;3;3;
46681;PMS5003;34101;53.430;-2.224;2024-01-15T07:56:53;3;3;
46681;PMS5003;34101;53.430;-2.224;2024-01-15T07:59:21;7;4;
46681;PMS5003;34101;53.430;-2.224;2024-01-15T08:01:49;6;3;
46681;PMS5003;34101;53.430;-2.224;2024-01-15T08:04:16;2;2;
46681;PMS5003;34101;53.430;-2.224;2024-01-15T08:06:43;3;3;
46681;PMS5003;34101;53.430;-2.224;2024-01-15T08:09:11;2;2;
46681;PMS5003;34101;53.430;-2.224;2024-01-15T08:11:40;2;2;
46681;PMS5003;34101;53.430;-2.224;2024-01-15T08:14:08;2;2;
46681;PMS5003;34101;53.430;-2.224;2024-01-15T08:16:35;2;1;
46681;PMS5003;34101;53.430;-2.224;2024-01-15T08:19:03;1;1;
46681;PMS5003;34101;53.430;-2.224;2024-01-15T08:21:31;3;2;
46681;PMS5003;34101;53.430;-2.224;2024-01-15T08:23:59;2;2;
46681;PMS5003;34101;53.430;-2.224;2024-01-15T08:26:27;2;2;
46681;PMS5003;34101;53.430;-2.224;2024-01-15T08:28:54;2;2;
46681;PMS5003;34101;53.430;-2.224;2024-01-15T08:31:22;2;2;
46681;PMS5003;34101;53.430;-2.224;2024-01-15T08:33:49;1;1;
46681;PMS5003;34101;53.430;-2.224;2024-01-15T08:36:17;3;3;
46681;PMS5003;34101;53.430;-2.224;2024-01-15T08:38:44;6;4;
46681;PMS5003;34101;53.430;-2.224;2024-01-15T08:41:12;6;6;
46681;PMS5003;34101;53.430;-2.224;2024-01-15T08:43:39;6;3;
46681;PMS5003;34101;53.430;-2.224;2024-01-15T08:46:07;3;3;
46681;PMS5003;34101;53.430;-2.224;2024-01-15T08:48:34;3;3;
46681;PMS5003;34101;53.430;-2.224;2024-01-15T08:51:02;8;4;
46681;PMS5003;34101;53.430;-2.224;2024-01-15T08:53:30;3;3;
46681;PMS5003;34101;53.430;-2.224;2024-01-15T08:55:58;3;3;
46681;PMS5003;34101;53.430;-2.224;2024-01-15T08:58:25;2;2;
46681;PMS5003;34101;53.430;-2.224;2024-01-15T09:00:53;3;1;
46681;PMS5003;34101;53.430;-2.224;2024-01-15T09:03:20;1;1;
46681;PMS5003;34101;53.430;-2.224;2024-01-15T09:05:48;2;1;
46681;PMS5003;34101;53.430;-2.224;2024-01-15T09:08:15;1;1;
46681;PMS5003;34101;53.430;-2.224;2024-01-15T09:10:43;1;1;
46681;PMS5003;34101;53.430;-2.224;2024-01-15T09:13:11;1;1;
46681;PMS5003;34101;53.430;-2.224;2024-01-15T09:15:38;1;1;
46681;PMS5003;34101;53.430;-2.224;2024-01-15T09:18:05;3;2;
46681;PMS5003;34101;53.430;-2.224;2024-01-15T09:20:32;1;1;
46681;PMS5003;34101;53.430;-2.224;2024-01-15T09:22:59;3;1;
46681;PMS5003;34101;53.430;-2.224;2024-01-15T09:25:27;2;2;
46681;PMS5003;34101;53.430;-2.224;2024-01-15T09:27:54;1;1;
46681;PMS5003;34101;53.430;-2.224;2024-01-15T09:30:22;4;2;
46681;PMS5003;34101;53.430;-2.224;2024-01-15T09:32:49;3;3;
46681;PMS5003;34101;53.430;-2.224;2024-01-15T09:35:17;1;1;
46681;PMS5003;34101;53.430;-2.224;2024-01-15T09:37:44;0;0;
46681;PMS5003;34101;53.430;-2.224;2024-01-15T09:40:12;2;2;
46681;PMS5003;34101;53.430;-2.224;2024-01-15T09:42:41;3;1;
46681;PMS5003;34101;53.430;-2.224;2024-01-15T09:45:09;2;2;
46681;PMS5003;34101;53.430;-2.224;2024-01-15T09:47:37;1;1;
46681;PMS5003;34101;53.430;-2.224;2024-01-15T09:50:05;3;3;
46681;PMS5003;34101;53.430;-2.224;2024-01-15T09:52:32;5;3;
46681;PMS5003;34101;53.430;-2.224;2024-01-15T09:55:02;4;4;
46681;PMS5003;34101;53.430;-2.224;2024-01-15T09:57:31;5;3;
46681;PMS5003;34101;53.430;-2.224;2024-01-15T09:59:59;7;5;
46681;PMS5003;34101;53.430;-2.224;2024-01-15T10:02:29;8;7;
46681;PMS5003;34101;53.430;-2.224;2024-01-15T10:04:57;6;4;
46681;PMS5003;34101;53.430;-2.224;2024-01-15T10:07:25;3;3;
46681;PMS5003;34101;53.430;-2.224;2024-01-15T10:09:54;2;2;
46681;PMS5003;34101;53.430;-2.224;2024-01-15T10:12:21;3;2;
46681;PMS5003;34101;53.430;-2.224;2024-01-15T10:14:50;2;2;
46681;PMS5003;34101;53.430;-2.224;2024-01-15T10:17:17;2;2;
46681;PMS5003;34101;53.430;-2.224;2024-01-15T10:19:45;2;2;
46681;PMS5003;34101;53.430;-2.224;2024-01-15T10:22:13;2;2;
46681;PMS5003;34101;53.430;-2.224;2024-01-15T10:24:41;2;2;
46681;PMS5003;34101;53.430;-2.224;2024-01-15T10:27:09;2;2;
46681;PMS5003;34101;53.430;-2.224;2024-01-15T10:29:37;2;2;
46681;PMS5003;34101;53.430;-2.224;2024-01-15T10:32:06;2;2;
46681;PMS5003;34101;53.430;-2.224;2024-01-15T10:36:19;3;3;
46681;PMS5003;34101;53.430;-2.224;2024-01-15T10:38:47;3;0;
46681;PMS5003;34101;53.430;-2.224;2024-01-15T10:41:14;3;1;
46681;PMS5003;34101;53.430;-2.224;2024-01-15T10:43:42;1;1;
46681;PMS5003;34101;53.430;-2.224;2024-01-15T10:46:10;0;0;
46681;PMS5003;34101;53.430;-2.224;2024-01-15T10:48:39;1;1;
46681;PMS5003;34101;53.430;-2.224;2024-01-15T10:51:06;1;1;
46681;PMS5003;34101;53.430;-2.224;2024-01-15T10:53:34;0;0;
46681;PMS5003;34101;53.430;-2.224;2024-01-15T10:56:05;2;1;
46681;PMS5003;34101;53.430;-2.224;2024-01-15T10:58:33;1;1;
46681;PMS5003;34101;53.430;-2.224;2024-01-15T11:01:01;2;2;
46681;PMS5003;34101;53.430;-2.224;2024-01-15T11:03:31;0;0;
46681;PMS5003;34101;53.430;-2.224;2024-01-15T11:05:58;0;0;
46681;PMS5003;34101;53.430;-2.224;2024-01-15T11:08:26;1;1;
46681;PMS5003;34101;53.430;-2.224;2024-01-15T11:10:54;1;1;
46681;PMS5003;34101;53.430;-2.224;2024-01-15T11:16:07;2;1;
46681;PMS5003;34101;53.430;-2.224;2024-01-15T11:18:36;1;1;
46681;PMS5003;34101;53.430;-2.224;2024-01-15T11:21:22;0;0;
46681;PMS5003;34101;53.430;-2.224;2024-01-15T11:23:51;2;2;
46681;PMS5003;34101;53.430;-2.224;2024-01-15T11:26:29;5;3;
46681;PMS5003;34101;53.430;-2.224;2024-01-15T11:28:58;1;1;
46681;PMS5003;34101;53.430;-2.224;2024-01-15T11:31:27;2;2;
46681;PMS5003;34101;53.430;-2.224;2024-01-15T11:33:57;1;1;
46681;PMS5003;34101;53.430;-2.224;2024-01-15T11:36:57;1;1;
46681;PMS5003;34101;53.430;-2.224;2024-01-15T11:39:43;1;1;
46681;PMS5003;34101;53.430;-2.224;2024-01-15T11:42:12;1;1;
46681;PMS5003;34101;53.430;-2.224;2024-01-15T11:44:41;1;1;
46681;PMS5003;34101;53.430;-2.224;2024-01-15T11:47:09;1;1;
46681;PMS5003;34101;53.430;-2.224;2024-01-15T11:49:57;1;1;
46681;PMS5003;34101;53.430;-2.224;2024-01-15T11:52:26;4;4;
46681;PMS5003;34101;53.430;-2.224;2024-01-15T11:55:01;5;4;
46681;PMS5003;34101;53.430;-2.224;2024-01-15T11:57:40;0;0;
46681;PMS5003;34101;53.430;-2.224;2024-01-15T12:00:11;5;2;
46681;PMS5003;34101;53.430;-2.224;2024-01-15T12:02:40;0;0;
46681;PMS5003;34101;53.430;-2.224;2024-01-15T12:05:08;2;2;
46681;PMS5003;34101;53.430;-2.224;2024-01-15T12:07:36;7;4;
46681;PMS5003;34101;53.430;-2.224;2024-01-15T12:10:08;4;3;
46681;PMS5003;34101;53.430;-2.224;2024-01-15T12:12:39;6;3;
46681;PMS5003;34101;53.430;-2.224;2024-01-15T12:15:17;2;2;
46681;PMS5003;34101;53.430;-2.224;2024-01-15T12:17:45;1;1;
46681;PMS5003;34101;53.430;-2.224;2024-01-15T12:20:13;1;1;
46681;PMS5003;34101;53.430;-2.224;2024-01-15T12:22:41;2;2;
46681;PMS5003;34101;53.430;-2.224;2024-01-15T12:25:08;3;1;
46681;PMS5003;34101;53.430;-2.224;2024-01-15T12:27:36;2;1;
46681;PMS5003;34101;53.430;-2.224;2024-01-15T12:30:04;2;1;
46681;PMS5003;34101;53.430;-2.224;2024-01-15T12:32:32;2;2;
46681;PMS5003;34101;53.430;-2.224;2024-01-15T12:35:01;1;1;
46681;PMS5003;34101;53.430;-2.224;2024-01-15T12:37:29;0;0;
46681;PMS5003;34101;53.430;-2.224;2024-01-15T12:39:56;1;1;
46681;PMS5003;34101;53.430;-2.224;2024-01-15T12:42:25;1;1;
46681;PMS5003;34101;53.430;-2.224;2024-01-15T12:44:55;1;0;
46681;PMS5003;34101;53.430;-2.224;2024-01-15T12:47:23;1;1;
46681;PMS5003;34101;53.430;-2.224;2024-01-15T12:49:51;0;0;
46681;PMS5003;34101;53.430;-2.224;2024-01-15T12:52:19;1;1;
46681;PMS5003;34101;53.430;-2.224;2024-01-15T12:54:46;3;3;
46681;PMS5003;34101;53.430;-2.224;2024-01-15T12:57:14;1;1;
46681;PMS5003;34101;53.430;-2.224;2024-01-15T12:59:42;2;2;
46681;PMS5003;34101;53.430;-2.224;2024-01-15T13:02:10;2;2;
46681;PMS5003;34101;53.430;-2.224;2024-01-15T13:04:38;5;1;
46681;PMS5003;34101;53.430;-2.224;2024-01-15T13:07:05;2;2;
46681;PMS5003;34101;53.430;-2.224;2024-01-15T13:09:32;2;2;
46681;PMS5003;34101;53.430;-2.224;2024-01-15T13:12:00;0;0;
46681;PMS5003;34101;53.430;-2.224;2024-01-15T13:14:27;0;0;
46681;PMS5003;34101;53.430;-2.224;2024-01-15T13:16:55;0;0;
46681;PMS5003;34101;53.430;-2.224;2024-01-15T13:19:22;1;1;
46681;PMS5003;34101;53.430;-2.224;2024-01-15T13:21:50;1;1;
46681;PMS5003;34101;53.430;-2.224;2024-01-15T13:24:17;1;1;
46681;PMS5003;34101;53.430;-2.224;2024-01-15T13:26:45;1;1;
46681;PMS5003;34101;53.430;-2.224;2024-01-15T13:29:12;2;1;
46681;PMS5003;34101;53.430;-2.224;2024-01-15T13:31:40;1;1;
46681;PMS5003;34101;53.430;-2.224;2024-01-15T13:34:07;1;1;
46681;PMS5003;34101;53.430;-2.224;2024-01-15T13:36:34;3;2;
46681;PMS5003;34101;53.430;-2.224;2024-01-15T13:39:02;0;0;
46681;PMS5003;34101;53.430;-2.224;2024-01-15T13:41:35;2;0;
46681;PMS5003;34101;53.430;-2.224;2024-01-15T13:44:02;0;0;
46681;PMS5003;34101;53.430;-2.224;2024-01-15T13:46:30;0;0;
46681;PMS5003;34101;53.430;-2.224;2024-01-15T13:48:57;0;0;
46681;PMS5003;34101;53.430;-2.224;2024-01-15T13:51:25;1;1;
46681;PMS5003;34101;53.430;-2.224;2024-01-15T13:53:53;1;1;
46681;PMS5003;34101;53.430;-2.224;2024-01-15T13:56:21;2;2;
46681;PMS5003;34101;53.430;-2.224;2024-01-15T13:58:48;0;0;
46681;PMS5003;34101;53.430;-2.224;2024-01-15T14:01:15;0;0;
46681;PMS5003;34101;53.430;-2.224;2024-01-15T14:03:43;2;0;
46681;PMS5003;34101;53.430;-2.224;2024-01-15T14:06:10;3;2;
46681;PMS5003;34101;53.430;-2.224;2024-01-15T14:08:37;0;0;
46681;PMS5003;34101;53.430;-2.224;2024-01-15T14:11:05;0;0;
46681;PMS5003;34101;53.430;-2.224;2024-01-15T14:13:32;1;1;
46681;PMS5003;34101;53.430;-2.224;2024-01-15T14:16:00;1;1;
46681;PMS5003;34101;53.430;-2.224;2024-01-15T14:18:27;2;1;
46681;PMS5003;34101;53.430;-2.224;2024-01-15T14:20:55;0;0;
46681;PMS5003;34101;53.430;-2.224;2024-01-15T14:23:22;2;0;
46681;PMS5003;34101;53.430;-2.224;2024-01-15T14:25:50;1;1;
46681;PMS5003;34101;53.430;-2.224;2024-01-15T14:28:17;1;1;
46681;PMS5003;34101;53.430;-2.224;2024-01-15T14:30:45;1;1;
46681;PMS5003;34101;53.430;-2.224;2024-01-15T14:33:11;1;1;
46681;PMS5003;34101;53.430;-2.224;2024-01-15T14:35:39;1;1;
46681;PMS5003;34101;53.430;-2.224;2024-01-15T14:38:06;1;1;
46681;PMS5003;34101;53.430;-2.224;2024-01-15T14:40:34;1;1;
46681;PMS5003;34101;53.430;-2.224;2024-01-15T14:43:01;1;1;
46681;PMS5003;34101;53.430;-2.224;2024-01-15T14:45:29;1;1;
46681;PMS5003;34101;53.430;-2.224;2024-01-15T14:47:56;2;2;
46681;PMS5003;34101;53.430;-2.224;2024-01-15T14:50:24;1;1;
46681;PMS5003;34101;53.430;-2.224;2024-01-15T14:52:51;1;1;
46681;PMS5003;34101;53.430;-2.224;2024-01-15T14:55:19;1;1;
46681;PMS5003;34101;53.430;-2.224;2024-01-15T14:57:46;2;0;
46681;PMS5003;34101;53.430;-2.224;2024-01-15T15:00:14;1;1;
46681;PMS5003;34101;53.430;-2.224;2024-01-15T15:02:41;1;1;
46681;PMS5003;34101;53.430;-2.224;2024-01-15T15:05:09;1;1;
46681;PMS5003;34101;53.430;-2.224;2024-01-15T15:07:36;2;2;
46681;PMS5003;34101;53.430;-2.224;2024-01-15T15:10:04;9;6;
46681;PMS5003;34101;53.430;-2.224;2024-01-15T15:12:32;5;3;
46681;PMS5003;34101;53.430;-2.224;2024-01-15T15:14:59;19;16;
46681;PMS5003;34101;53.430;-2.224;2024-01-15T15:17:26;8;8;
46681;PMS5003;34101;53.430;-2.224;2024-01-15T15:19:54;4;4;
46681;PMS5003;34101;53.430;-2.224;2024-01-15T15:22:21;7;5;
46681;PMS5003;34101;53.430;-2.224;2024-01-15T15:24:50;7;5;
46681;PMS5003;34101;53.430;-2.224;2024-01-15T15:27:17;3;3;
46681;PMS5003;34101;53.430;-2.224;2024-01-15T15:29:45;5;4;
46681;PMS5003;34101;53.430;-2.224;2024-01-15T15:32:12;4;4;
46681;PMS5003;34101;53.430;-2.224;2024-01-15T15:34:40;3;3;
46681;PMS5003;34101;53.430;-2.224;2024-01-15T15:37:07;4;2;
46681;PMS5003;34101;53.430;-2.224;2024-01-15T15:39:35;2;1;
46681;PMS5003;34101;53.430;-2.224;2024-01-15T15:42:02;1;1;
46681;PMS5003;34101;53.430;-2.224;2024-01-15T15:44:30;2;1;
46681;PMS5003;34101;53.430;-2.224;2024-01-15T15:46:57;3;1;
46681;PMS5003;34101;53.430;-2.224;2024-01-15T15:49:25;1;1;
46681;PMS5003;34101;53.430;-2.224;2024-01-15T15:51:52;1;1;
46681;PMS5003;34101;53.430;-2.224;2024-01-15T15:54:19;1;1;
46681;PMS5003;34101;53.430;-2.224;2024-01-15T15:56:47;0;0;
46681;PMS5003;34101;53.430;-2.224;2024-01-15T15:59:15;4;4;
46681;PMS5003;34101;53.430;-2.224;2024-01-15T16:01:42;5;4;
46681;PMS5003;34101;53.430;-2.224;2024-01-15T16:04:09;2;2;
46681;PMS5003;34101;53.430;-2.224;2024-01-15T16:06:37;2;2;
46681;PMS5003;34101;53.430;-2.224;2024-01-15T16:09:04;4;2;
46681;PMS5003;34101;53.430;-2.224;2024-01-15T16:11:32;2;2;
46681;PMS5003;34101;53.430;-2.224;2024-01-15T16:13:59;2;2;
46681;PMS5003;34101;53.430;-2.224;2024-01-15T16:16:27;3;2;
46681;PMS5003;34101;53.430;-2.224;2024-01-15T16:18:54;1;1;
46681;PMS5003;34101;53.430;-2.224;2024-01-15T16:21:22;2;1;
46681;PMS5003;34101;53.430;-2.224;2024-01-15T16:23:49;2;0;
46681;PMS5003;34101;53.430;-2.224;2024-01-15T16:26:17;2;2;
46681;PMS5003;34101;53.430;-2.224;2024-01-15T16:28:44;1;1;
46681;PMS5003;34101;53.430;-2.224;2024-01-15T16:31:12;1;1;
46681;PMS5003;34101;53.430;-2.224;2024-01-15T16:33:39;2;2;
46681;PMS5003;34101;53.430;-2.224;2024-01-15T16:36:07;3;3;
46681;PMS5003;34101;53.430;-2.224;2024-01-15T16:38:35;5;3;
46681;PMS5003;34101;53.430;-2.224;2024-01-15T16:41:02;3;1;
46681;PMS5003;34101;53.430;-2.224;2024-01-15T16:43:30;3;2;